Latest Weather Observations for Camden

IDN60801

Issued at 9:32 pm EST Thursday 22 June 2017 (issued every 30 minutes, with the page automatically refreshed every 10 minutes)

About weather observations | Map of weather stations | Latest weather observations for NSW | Other Formats
Station Details ID: 068192 Name: CAMDEN AIRPORT AWS Lat: -34.04 Lon: 150.69 Height: 73.9 m
Data from the previous 72 hours. | See also: Recent months at Camden
Date/Time
EST
Temp
°C
App
Temp
°C
Dew
Point
°C
Rel
Hum
%
Delta-T
°C
Wind Press
QNH
hPa
Press
MSL
hPa
Rain since
9am
mm
Dir  Spd
km/h
Gust
km/h
Spd
kts
Gust
kts
22/09:30pm 7.6 7.0 7.2 97 0.2 CALM 0 0 0 0 1024.2 1024.3 0.0
22/09:15pm 7.7 7.0 7.1 96 0.3 CALM 0 0 0 0 1024.4 1024.5 0.0
22/09:00pm 8.4 7.9 7.8 96 0.3 CALM 0 0 0 0 1024.4 1024.5 0.0
22/08:30pm 8.8 8.3 8.0 95 0.4 CALM 0 0 0 0 1024.6 1024.7 0.0
22/08:00pm 9.4 8.3 8.3 93 0.5 S 4 7 2 4 1024.3 1024.4 0.0
22/07:30pm 9.5 9.1 8.3 92 0.6 CALM 0 0 0 0 1024.5 1024.6 0.0
22/07:00pm 10.4 10.0 8.3 87 1.0 CALM 0 0 0 0 1024.4 1024.5 0.0
22/06:30pm 10.6 9.2 8.7 88 0.9 ENE 6 13 3 7 1024.5 1024.6 0.0
22/06:00pm 11.1 10.9 9.0 87 1.0 CALM 0 6 0 3 1024.4 1024.5 0.0
22/05:30pm 12.2 11.9 8.5 78 1.8 CALM 0 7 0 4 1024.0 1024.1 0.0
22/05:00pm 14.7 14.2 8.0 64 3.3 CALM 0 0 0 0 1024.0 1024.1 0.0
22/04:30pm 16.1 15.7 8.1 59 4.1 CALM 0 0 0 0 1024.2 1024.3 0.0
22/04:00pm 17.1 15.4 7.5 53 4.8 NE 6 7 3 4 1024.7 1024.8 0.0
22/03:30pm 17.4 15.2 8.0 54 4.8 NE 9 13 5 7 1024.5 1024.6 0.0
22/03:00pm 17.6 15.3 7.6 52 5.0 N 9 11 5 6 1024.4 1024.5 0.0
22/02:30pm 17.8 16.1 7.5 51 5.2 N 6 13 3 7 1024.4 1024.5 0.0
22/02:00pm 17.5 15.7 7.0 50 5.2 NNE 6 11 3 6 1024.5 1024.6 0.0
22/01:30pm 17.6 16.0 7.9 53 4.9 N 6 15 3 8 1025.1 1025.2 0.0
22/01:00pm 17.3 15.0 7.4 52 5.0 NNW 9 15 5 8 1025.5 1025.6 0.0
22/12:30pm 17.4 16.3 8.3 55 4.7 SSW 4 9 2 5 1026.0 1026.1 0.0
22/12:00pm 16.1 14.5 7.8 58 4.2 W 6 11 3 6 1026.8 1026.9 0.0
22/11:30am 16.2 14.8 8.7 61 3.8 NW 6 9 3 5 1027.4 1027.5 0.0
22/11:00am 14.9 14.2 8.4 65 3.3 WSW 2 7 1 4 1027.9 1028.0 0.0
22/10:30am 14.2 12.6 8.6 69 2.8 W 7 9 4 5 1028.4 1028.5 0.0
22/10:00am 13.0 11.7 9.1 77 2.0 WSW 6 11 3 6 1028.8 1028.9 0.0
22/09:30am 11.4 11.1 8.6 83 1.4 CALM 0 2 0 1 1028.9 1029.0 0.0
22/09:00am 9.9 9.6 8.5 91 0.7 CALM 0 0 0 0 1028.8 1028.9 0.2
22/08:30am 7.5 6.9 7.4 99 0.0 CALM 0 0 0 0 1028.7 1028.8 0.2
22/08:00am 5.3 4.2 5.2 99 0.0 CALM 0 0 0 0 1028.8 1028.9 0.2
22/07:30am 3.8 1.1 3.7 99 0.0 SSW 7 9 4 5 1028.5 1028.6 0.2
22/07:00am 4.3 2.3 4.2 99 0.0 SSW 4 7 2 4 1028.2 1028.3 0.2
22/06:30am 5.9 4.9 5.8 99 0.0 CALM 0 0 0 0 1028.0 1028.1 0.2
22/06:06am 5.0 3.9 4.9 99 0.0 CALM 0 0 0 0 1027.6 1027.7 0.0
22/06:00am 4.8 3.6 4.7 99 0.0 CALM 0 0 0 0 1027.6 1027.7 0.0
22/05:30am 4.2 2.9 4.1 99 0.0 CALM 0 0 0 0 1027.4 1027.5 0.0
22/05:00am 4.3 3.0 4.2 99 0.0 CALM 0 0 0 0 1027.4 1027.5 0.0
22/04:55am 4.0 2.7 3.9 99 0.0 CALM 0 0 0 0 1027.4 1027.5 0.0
22/04:42am 3.7 2.3 3.6 99 0.0 CALM 0 0 0 0 1027.4 1027.5 0.0
22/04:30am 4.1 2.8 4.0 99 0.0 CALM 0 0 0 0 1027.3 1027.4 0.0
22/04:00am 4.3 3.0 4.2 99 0.0 CALM 0 0 0 0 1027.2 1027.3 0.0
22/03:30am 4.5 3.3 4.4 99 0.0 CALM 0 0 0 0 1027.1 1027.2 0.0
22/03:00am 5.0 3.9 4.9 99 0.0 CALM 0 0 0 0 1027.3 1027.4 0.0
22/02:30am 4.9 3.7 4.8 99 0.0 CALM 0 0 0 0 1027.6 1027.7 0.0
22/02:20am 5.5 4.5 5.4 99 0.0 CALM 0 0 0 0 1027.8 1027.9 0.0
22/02:04am 4.4 3.1 4.3 99 0.0 CALM 0 0 0 0 1027.7 1027.8 0.0
22/02:00am 4.3 3.0 4.2 99 0.0 CALM 0 0 0 0 1027.7 1027.8 0.0
22/01:30am 5.1 4.0 5.0 99 0.0 CALM 0 0 0 0 1027.8 1027.9 0.0
22/01:00am 5.2 4.1 5.1 99 0.0 CALM 0 0 0 0 1027.9 1028.0 0.0
22/12:42am 4.5 3.2 4.2 98 0.1 CALM 0 0 0 0 1027.9 1028.0 0.0
22/12:37am 4.5 3.2 4.2 98 0.1 CALM 0 0 0 0 1027.9 1028.0 0.0
22/12:30am 4.8 3.6 4.7 99 0.0 CALM 0 0 0 0 1028.0 1028.1 0.0
22/12:00am 5.4 4.3 5.3 99 0.0 CALM 0 0 0 0 1028.2 1028.3 0.0
 
Date/Time
EST
Temp
°C
App
Temp
°C
Dew
Point
°C
Rel
Hum
%
Delta-T
°C
Wind Press
QNH
hPa
Press
MSL
hPa
Rain since
9am
mm
Dir  Spd
km/h
Gust
km/h
Spd
kts
Gust
kts
21/11:42pm 5.6 4.6 5.5 99 0.0 CALM 0 0 0 0 1028.0 1028.1 0.0
21/11:33pm 5.3 4.2 5.2 99 0.0 CALM 0 0 0 0 1028.3 1028.4 0.0
21/11:30pm 5.5 4.5 5.4 99 0.0 CALM 0 0 0 0 1028.3 1028.4 0.0
21/11:00pm 6.0 5.1 5.9 99 0.0 CALM 0 0 0 0 1028.3 1028.4 0.0
21/10:33pm 5.9 4.9 5.8 99 0.0 CALM 0 0 0 0 1028.6 1028.7 0.0
21/10:30pm 6.4 5.6 6.3 99 0.0 CALM 0 0 0 0 1028.6 1028.7 0.0
21/10:09pm 7.1 6.4 7.0 99 0.0 CALM 0 0 0 0 1028.4 1028.5 0.0
21/10:00pm 6.9 6.2 6.8 99 0.0 CALM 0 0 0 0 1028.5 1028.6 0.0
21/09:30pm 7.0 6.2 6.7 98 0.1 CALM 0 0 0 0 1028.5 1028.6 0.0
21/09:11pm 7.3 6.7 7.2 99 0.0 CALM 0 0 0 0 1028.6 1028.7 0.0
21/09:00pm 7.7 7.1 7.4 98 0.1 CALM 0 0 0 0 1028.7 1028.8 0.0
21/08:30pm 8.5 8.0 7.7 95 0.4 CALM 0 0 0 0 1028.7 1028.8 0.0
21/08:00pm 8.4 7.8 7.6 95 0.4 CALM 0 0 0 0 1028.8 1028.9 0.0
21/07:30pm 8.6 8.0 7.4 92 0.6 CALM 0 0 0 0 1028.6 1028.7 0.0
21/07:00pm 9.7 9.2 7.8 88 0.9 CALM 0 0 0 0 1028.1 1028.2 0.0
21/06:30pm 10.1 9.6 7.9 86 1.1 CALM 0 6 0 3 1027.8 1027.9 0.0
21/06:00pm 11.1 9.2 7.4 78 1.8 SSW 7 7 4 4 1027.3 1027.4 0.0
21/05:30pm 13.5 11.9 7.9 69 2.8 SE 6 7 3 4 1026.7 1026.8 0.0
21/05:00pm 14.1 12.2 7.4 64 3.3 ESE 7 11 4 6 1026.2 1026.3 0.0
21/04:30pm 15.5 13.2 7.3 58 4.1 SE 9 13 5 7 1026.0 1026.1 0.0
21/04:00pm 16.7 13.7 7.6 55 4.6 SE 13 19 7 10 1025.7 1025.8 0.0
21/03:30pm 17.3 13.8 7.4 52 5.0 SE 15 24 8 13 1025.3 1025.4 0.0
21/03:00pm 17.8 14.2 6.7 48 5.5 SSE 15 20 8 11 1025.6 1025.7 0.0
21/02:30pm 18.2 14.9 7.9 51 5.3 SSE 15 20 8 11 1025.5 1025.6 0.0
21/02:00pm 17.5 13.7 7.5 52 5.0 SSE 17 28 9 15 1025.5 1025.6 0.0
21/01:30pm 18.2 14.6 8.5 53 5.0 SSE 17 24 9 13 1025.3 1025.4 0.0
21/01:00pm 18.4 15.5 9.7 57 4.6 SSE 15 24 8 13 1025.4 1025.5 0.0
21/12:30pm 17.5 14.2 9.4 59 4.2 S 17 28 9 15 1025.6 1025.7 0.0
21/12:00pm 17.9 14.7 9.8 59 4.3 S 17 26 9 14 1026.0 1026.1 0.0
21/11:30am 17.1 13.5 8.3 56 4.5 SW 17 20 9 11 1026.3 1026.4 0.0
21/11:00am 16.4 13.0 7.6 56 4.4 SW 15 20 8 11 1026.7 1026.8 0.0
21/10:30am 15.2 12.6 7.7 61 3.7 WSW 11 17 6 9 1026.9 1027.0 0.0
21/10:00am 12.0 11.6 8.3 78 1.8 CALM 0 0 0 0 1026.8 1026.9 0.0
21/09:30am 8.5 7.7 6.5 87 0.9 CALM 0 0 0 0 1026.9 1027.0 0.0
21/09:00am 6.3 5.4 6.2 99 0.0 CALM 0 2 0 1 1026.5 1026.6 0.2
21/08:30am 4.5 3.3 4.4 99 0.0 CALM 0 0 0 0 1026.2 1026.3 0.2
21/08:01am 2.5 0.9 2.4 99 0.0 CALM 0 0 0 0 1025.7 1025.8 0.2
21/08:00am 2.3 0.7 2.2 99 0.0 CALM 0 0 0 0 1025.7 1025.8 0.2
21/07:30am 1.2 -0.6 1.1 99 0.0 CALM 0 0 0 0 1025.4 1025.5 0.2
21/07:20am 1.7 0.0 1.6 99 0.0 CALM 0 0 0 0 1025.3 1025.4 0.2
21/07:10am 1.5 -0.3 1.4 99 0.0 CALM 0 0 0 0 1025.1 1025.2 0.2
21/07:02am 1.7 0.0 1.6 99 0.0 CALM 0 0 0 0 1025.0 1025.1 0.2
21/07:00am 1.8 0.1 1.7 99 0.0 CALM 0 0 0 0 1025.0 1025.1 0.2
21/06:30am 1.4 -0.4 1.3 99 0.0 CALM 0 0 0 0 1024.7 1024.8 0.2
21/06:00am 1.6 -0.2 1.5 99 0.0 CALM 0 0 0 0 1024.3 1024.4 0.2
21/05:58am 1.6 -0.2 1.5 99 0.0 CALM 0 0 0 0 1024.2 1024.3 0.2
21/05:30am 2.4 0.8 2.3 99 0.0 CALM 0 0 0 0 1023.9 1024.0 0.2
21/05:00am 2.2 0.5 2.1 99 0.0 CALM 0 0 0 0 1023.9 1024.0 0.2
21/04:30am 2.4 0.8 2.3 99 0.0 CALM 0 0 0 0 1023.8 1023.9 0.2
21/04:23am 2.3 0.7 2.2 99 0.0 CALM 0 0 0 0 1023.8 1023.9 0.2
21/04:21am 2.2 0.5 2.1 99 0.0 CALM 0 0 0 0 1023.8 1023.9 0.2
21/04:00am 3.3 1.8 3.2 99 0.0 CALM 0 4 0 2 1023.6 1023.7 0.2
21/03:30am 2.7 0.0 2.6 99 0.0 SSE 6 9 3 5 1023.6 1023.7 0.2
21/03:00am 3.5 1.7 3.4 99 0.0 S 2 7 1 4 1023.5 1023.6 0.2
21/02:30am 3.6 2.2 3.5 99 0.0 CALM 0 0 0 0 1023.7 1023.8 0.2
21/02:00am 4.0 2.7 3.9 99 0.0 CALM 0 0 0 0 1023.9 1024.0 0.2
21/01:30am 3.9 2.5 3.8 99 0.0 CALM 0 0 0 0 1024.1 1024.2 0.0
21/01:00am 4.5 3.3 4.4 99 0.0 CALM 0 0 0 0 1024.2 1024.3 0.0
21/12:58am 4.5 3.3 4.4 99 0.0 CALM 0 0 0 0 1024.2 1024.3 0.0
21/12:36am 4.9 3.7 4.8 99 0.0 CALM 0 0 0 0 1024.4 1024.5 0.0
21/12:30am 4.9 3.7 4.8 99 0.0 CALM 0 0 0 0 1024.5 1024.6 0.0
21/12:00am 5.0 3.1 4.9 99 0.0 SSE 4 7 2 4 1024.6 1024.7 0.0
 
Date/Time
EST
Temp
°C
App
Temp
°C
Dew
Point
°C
Rel
Hum
%
Delta-T
°C
Wind Press
QNH
hPa
Press
MSL
hPa
Rain since
9am
mm
Dir  Spd
km/h
Gust
km/h
Spd
kts
Gust
kts
20/11:30pm 5.9 4.9 5.8 99 0.0 CALM 0 0 0 0 1024.9 1025.0 0.0
20/11:00pm 6.7 5.9 6.6 99 0.0 CALM 0 0 0 0 1025.2 1025.3 0.0
20/10:30pm 7.2 6.5 7.1 99 0.0 CALM 0 0 0 0 1025.1 1025.2 0.0
20/10:00pm 7.7 7.1 7.6 99 0.0 CALM 0 0 0 0 1025.2 1025.3 0.0
20/09:30pm 8.3 7.9 8.2 99 0.0 CALM 0 0 0 0 1025.1 1025.2 0.0
20/09:00pm 8.4 8.0 8.1 98 0.1 CALM 0 0 0 0 1025.3 1025.4 0.0
20/08:30pm 8.7 8.3 8.1 96 0.3 CALM 0 0 0 0 1025.3 1025.4 0.0
20/08:00pm 9.7 9.5 8.9 95 0.4 CALM 0 0 0 0 1025.4 1025.5 0.0
20/07:46pm 10.0 9.8 9.1 94 0.4 CALM 0 0 0 0 1025.5 1025.6 0.0
20/07:30pm 10.3 10.2 9.4 94 0.5 CALM 0 0 0 0 1025.5 1025.6 0.0
20/07:11pm 10.9 11.0 10.3 96 0.3 CALM 0 0 0 0 1025.3 1025.4 0.0
20/07:00pm 10.7 10.6 9.6 93 0.6 CALM 0 0 0 0 1025.2 1025.3 0.0
20/06:50pm 11.4 11.5 10.1 92 0.7 CALM 0 0 0 0 1025.2 1025.3 0.0
20/06:30pm 11.4 11.4 9.8 90 0.8 CALM 0 0 0 0 1025.0 1025.1 0.0
20/06:00pm 12.4 12.6 10.5 88 1.0 CALM 0 0 0 0 1024.9 1025.0 0.0
20/05:30pm 13.7 13.7 9.9 78 2.0 CALM 0 0 0 0 1024.9 1025.0 0.0
20/05:00pm 15.8 15.8 9.9 68 3.1 CALM 0 0 0 0 1024.8 1024.9 0.0
20/04:30pm 17.7 16.6 9.8 60 4.2 N 6 9 3 5 1024.9 1025.0 0.0
20/04:00pm 18.5 17.2 9.8 57 4.6 N 7 11 4 6 1024.7 1024.8 0.0
20/03:30pm 19.1 17.8 9.9 55 4.9 N 7 11 4 6 1024.8 1024.9 0.0
20/03:00pm 19.1 17.7 9.0 52 5.3 NW 6 11 3 6 1025.0 1025.1 0.0
20/02:30pm 19.3 17.3 8.6 50 5.6 NW 9 13 5 7 1025.2 1025.3 0.0
20/02:00pm 18.9 17.5 9.4 54 5.0 N 7 11 4 6 1025.3 1025.4 0.0
20/01:30pm 18.5 18.4 9.3 55 4.8 CALM 0 7 0 4 1025.7 1025.8 0.0
20/01:00pm 18.9 18.9 9.9 56 4.8 CALM 0 4 0 2 1026.1 1026.2 0.0
20/12:30pm 18.8 17.5 9.3 54 5.0 W 6 11 3 6 1026.7 1026.8 0.0
20/12:00pm 17.8 16.5 9.2 57 4.5 W 6 11 3 6 1027.2 1027.3 0.0
20/11:30am 17.1 15.6 9.0 59 4.2 WSW 7 13 4 7 1027.8 1027.9 0.0
20/11:00am 16.6 14.7 9.1 61 3.9 SW 9 15 5 8 1028.3 1028.4 0.0
20/10:30am 15.9 14.5 9.6 66 3.3 SW 7 11 4 6 1028.8 1028.9 0.0
20/10:00am 14.7 12.8 8.9 68 2.9 WSW 9 13 5 7 1029.0 1029.1 0.0
20/09:30am 13.1 11.6 9.0 76 2.1 SW 7 9 4 5 1029.0 1029.1 0.0
20/09:00am 12.0 10.6 8.7 80 1.6 WSW 6 7 3 4 1029.0 1029.1 0.0
20/08:30am 11.1 9.5 8.1 82 1.5 SW 6 9 3 5 1029.1 1029.2 0.0
20/08:00am 10.2 8.7 8.3 88 0.9 SW 6 7 3 4 1029.0 1029.1 0.0
20/07:30am 9.6 7.9 7.7 88 0.9 SW 6 7 3 4 1029.1 1029.2 0.0
20/07:00am 9.3 7.6 7.6 89 0.8 SW 6 7 3 4 1028.7 1028.8 0.0
20/06:30am 9.7 8.0 7.6 87 1.0 SW 6 9 3 5 1028.6 1028.7 0.0
20/06:00am 10.0 9.2 8.1 88 0.9 SW 2 6 1 3 1028.4 1028.5 0.0
20/05:30am 10.8 9.2 8.6 86 1.1 SSW 7 11 4 6 1028.1 1028.2 0.0
20/05:00am 10.8 9.2 8.7 87 1.0 SW 7 11 4 6 1027.9 1028.0 0.0
20/04:30am 10.7 10.4 8.8 88 0.9 CALM 0 0 0 0 1028.1 1028.2 0.0
20/04:00am 11.0 10.0 8.9 87 1.0 WSW 4 7 2 4 1028.3 1028.4 0.0
20/03:30am 11.1 9.1 8.8 86 1.1 SW 9 13 5 7 1028.5 1028.6 0.0
20/03:00am 11.2 9.0 9.5 89 0.9 SW 11 15 6 8 1028.4 1028.5 0.0
20/02:30am 10.8 9.6 9.6 92 0.6 SW 6 7 3 4 1028.7 1028.8 0.0
20/02:00am 10.5 8.8 10.0 97 0.3 WSW 9 9 5 5 1028.7 1028.8 0.0
20/01:30am 10.0 9.6 9.9 99 0.1 W 2 7 1 4 1028.9 1029.0 0.0
20/01:00am 9.8 9.8 9.7 99 0.0 CALM 0 4 0 2 1029.1 1029.2 0.0
20/12:30am 9.6 8.4 9.5 99 0.0 NNW 6 7 3 4 1029.2 1029.3 0.0
20/12:00am 9.5 9.0 9.4 99 0.0 N 2 7 1 4 1029.3 1029.4 0.0
 
Date/Time
EST
Temp
°C
App
Temp
°C
Dew
Point
°C
Rel
Hum
%
Delta-T
°C
Wind Press
QNH
hPa
Press
MSL
hPa
Rain since
9am
mm
Dir  Spd
km/h
Gust
km/h
Spd
kts
Gust
kts
19/11:46pm 9.0 8.8 8.9 99 0.0 CALM 0 0 0 0 1029.3 1029.4 0.0
19/11:34pm 8.6 7.9 8.5 99 0.0 WNW 2 7 1 4 1029.3 1029.4 0.0
19/11:31pm 8.6 7.5 8.5 99 0.0 W 4 7 2 4 1029.5 1029.5 0.0
19/11:30pm 8.6 7.5 8.5 99 0.0 W 4 7 2 4 1029.5 1029.5 0.0
19/11:00pm 9.0 8.8 8.9 99 0.0 CALM 0 0 0 0 1029.7 1029.7 0.0
19/10:51pm 9.2 9.0 9.1 99 0.0 CALM 0 0 0 0 1029.7 1029.7 0.0
19/10:44pm 9.3 9.1 9.2 99 0.0 CALM 0 0 0 0 1029.8 1029.8 0.0
19/10:30pm 9.5 8.3 9.4 99 0.0 N 6 7 3 4 1029.8 1029.8 0.0
19/10:00pm 9.1 8.9 9.0 99 0.0 CALM 0 4 0 2 1029.7 1029.7 0.0
19/09:45pm 9.2 8.6 9.1 99 0.0 W 2 7 1 4 1029.7 1029.7 0.0
19/09:43pm 9.8 9.0 9.7 99 0.1 W 4 7 2 4 1029.7 1029.7 0.0

Other Formats:

Comma delimited format used in spreadsheet applications
http://www.bom.gov.au/fwo/IDN60801/IDN60801.94755.axf

JavaScript Object Notation format (JSON) in row-major order
http://www.bom.gov.au/fwo/IDN60801/IDN60801.94755.json